• Join FlightAware (Why Join?)
  • Login
  • US Flag 
06:17PM EDT


 

Airport Tracker/Info


-or-


 

Live Flight TrackerFlight Track Log ✈ UAL4696 ✈ 21-Sep-2013 ✈ KEWR - KMHT

Flight Track Log - Related Links

Times and Time Zones

All times are in EDT time to prevent confusion due to time zone crossing. See the UAL4696 flight status page for this flight to view local times or setup timezone preferences in your user account.

Time Position Orientation Groundspeed Altitude Reporting Facility
EDT Latitude Longitude Course Direction KTS MPH feet Rate Location/Type
08:18AM 40.6667 -74.1833 45° Northeast 171 197 1,300  Level New York TRACON
08:18AM 40.6167 -74.2167 207° Southwest 195 224 3,200 2,100 Climbing New York TRACON
08:19AM 40.6667 -74.2333 346° North 259 298 5,300 1,440 Climbing New York TRACON
08:21AM 40.9855 -73.8262 48° Northeast  Level Estimated
08:22AM 41.0586 -73.7401 37° Northeast  Level Estimated
08:22AM 40.8225 -74.1461 23° Northeast 286 329 7,900  Level Boston Center
08:23AM 41.1316 -73.6538 45° Northeast  Level Estimated
08:23AM 40.8961 -74.0931 29° Northeast 286 329 8,000  Level Boston Center
08:24AM 40.9411 -74.0036 56° Northeast 280 322 9,800 1,140 Climbing Boston Center
08:25AM 40.9800 -73.8944 65° Northeast 296 341 10,400 900 Climbing Boston Center
08:26AM 41.0233 -73.7744 64° Northeast 341 392 11,600 1,260 Climbing Boston Center
08:27AM 41.0747 -73.6433 62° Northeast 366 421 13,000 1,380 Climbing Boston Center
08:28AM 41.1525 -73.5786 32° Northeast 352 405 14,500 1,620 Climbing Boston Center
08:29AM 41.2492 -73.5003 31° Northeast 359 413 16,400 1,200 Climbing Boston Center
08:30AM 41.3269 -73.4353 32° Northeast 359 413 16,900 240 Climbing Boston Center
08:31AM 41.4339 -73.3483 31° Northeast 390 449 16,900  Level Boston Center
08:32AM 41.5283 -73.2525 37° Northeast 412 474 16,900  Level Boston Center
08:33AM 41.6206 -73.1731 33° Northeast 428 493 16,900  Level Boston Center
08:34AM 41.7317 -73.0911 29° Northeast 428 493 16,900  Level Boston Center
08:35AM 41.8258 -73.0222 29° Northeast 425 489 16,900  Level Boston Center
08:36AM 41.9325 -72.9425 29° Northeast 425 489 16,900 -180 Level Boston Center
08:37AM 42.0369 -72.8622 30° Northeast 425 489 16,600 -720 Descending Boston Center
08:38AM 42.1497 -72.7761 30° Northeast 425 489 15,500 -900 Descending Boston Center
08:39AM 42.2542 -72.6981 29° Northeast 425 489 14,900 -360 Descending Boston Center
08:40AM 42.3336 -72.5861 46° Northeast 406 467 14,900  Level Boston Center
08:41AM 42.3919 -72.4767 54° Northeast 398 458 14,900 -480 Level Boston Center
08:42AM 42.4650 -72.3358 55° Northeast 404 465 14,000 -1,380 Descending Boston Center
08:43AM 42.5189 -72.2317 55° Northeast 397 457 12,200 -1,860 Descending Boston Center
08:44AM 42.5811 -72.1131 55° Northeast 367 422 10,300 -1,680 Descending Boston Center
08:45AM 42.6289 -72.0253 53° Northeast 329 379 8,900 -1,680 Descending Boston Center
08:46AM 42.6806 -71.9206 56° Northeast 305 351 7,000 -1,800 Descending Boston Center
08:47AM 42.7239 -71.8381 54° Northeast 300 345 5,400 -1,380 Descending Boston Center
08:48AM 42.7525 -71.7361 69° East 267 307 4,300 -720 Descending Boston Center
08:49AM 42.7728 -71.6481 73° East 267 307 4,000 -240 Descending Boston Center
08:50AM 42.7700 -71.5464 92° East 250 288 3,900 -60 Descending Boston Center
08:51AM 42.7608 -71.4644 99° East 245 282 3,900 -600 Level Boston Center
08:52AM 42.7706 -71.3739 82° East 227 261 2,700 -1,020 Descending Boston Center
08:53AM 42.8247 -71.3728 North 179 206 1,900 -660 Descending Boston Center
08:54AM 42.8686 -71.3975 338° Northwest 160 184 1,400 -660 Descending Boston Center
08:55AM 42.9044 -71.4197 336° Northwest 154 177 600 -600 Descending Boston Center
08:56AM 42.9422 -71.4447 334° Northwest 154 177 300 2,220 Descending Boston Center
08:57AM 42.9778 -71.4722 330° Northwest 154 177 5,000 2,340 Climbing Boston Center
08:58AM 43.0156 -71.5003 332° Northwest 154 177 5,000  Level Boston Center